Time;durP1;ratioP1;P1;durP2;ratioP2;P2;SDS_P1;SDS_P2;PMS_P1;PMS_P2;Temp;Humidity;BMP_temperature;BMP_pressure;BME280_temperature;BME280_humidity;BME280_pressure;Samples;Min_cycle;Max_cycle;Signal;HPM_P1;HPM_P2
2022/09/11 00:01:18;;;;;;;0.60;0.60;;;;;;;5.19;75.17;99905.38;5114048;28;20079;-87
2022/09/11 00:03:46;;;;;;;0.60;0.60;;;;;;;5.16;74.88;99897.69;5120297;28;20052;-86
2022/09/11 00:06:16;;;;;;;0.60;0.60;;;;;;;5.16;75.14;99899.53;5125943;28;20071;-86
2022/09/11 00:09:01;;;;;;;0.52;0.52;;;;;;;5.12;75.27;99904.44;5115553;28;20047;-86
2022/09/11 00:11:34;;;;;;;0.60;0.60;;;;;;;5.01;75.30;99902.25;5095939;28;20057;-86
2022/09/11 00:14:02;;;;;;;0.60;0.60;;;;;;;4.98;75.49;99897.25;5115294;28;20101;-86
2022/09/11 00:16:33;;;;;;;0.60;0.60;;;;;;;5.01;75.83;99904.91;5114791;28;20142;-86
2022/09/11 00:19:03;;;;;;;0.60;0.60;;;;;;;4.99;75.71;99905.13;5113671;28;20048;-86
2022/09/11 00:21:30;;;;;;;0.60;0.60;;;;;;;4.95;75.78;99905.66;5113676;28;20451;-86
2022/09/11 00:23:58;;;;;;;0.60;0.60;;;;;;;4.88;76.02;99899.41;5115469;28;20062;-86
2022/09/11 00:26:25;;;;;;;0.60;0.60;;;;;;;4.83;76.19;99899.13;5121883;28;20064;-87
2022/09/11 00:28:53;;;;;;;0.50;0.50;;;;;;;4.76;76.31;99899.88;5117801;28;20051;-87
2022/09/11 00:31:26;;;;;;;0.60;0.60;;;;;;;4.76;76.86;99899.03;5115263;28;20046;-86
2022/09/11 00:33:55;;;;;;;0.60;0.60;;;;;;;4.76;76.60;99896.34;5116114;28;20406;-86
2022/09/11 00:36:24;;;;;;;0.60;0.60;;;;;;;4.78;76.55;99903.19;5114273;28;20051;-86
2022/09/11 00:38:52;;;;;;;0.70;0.70;;;;;;;4.77;76.77;99903.38;5097073;28;20529;-86
2022/09/11 00:41:35;;;;;;;0.50;0.50;;;;;;;4.76;76.54;99910.56;5114782;28;20135;-86
2022/09/11 00:44:11;;;;;;;0.70;0.70;;;;;;;4.78;76.92;99910.38;5115067;28;20083;-85
2022/09/11 00:46:45;;;;;;;0.60;0.60;;;;;;;4.80;76.88;99910.19;5115302;28;20055;-87
2022/09/11 00:49:38;;;;;;;0.80;0.80;;;;;;;4.76;76.88;99907.91;5118214;28;20051;-87
2022/09/11 00:52:26;;;;;;;0.50;0.50;;;;;;;4.73;76.73;99910.91;5114620;28;20053;-87
2022/09/11 00:55:04;;;;;;;0.60;0.60;;;;;;;4.68;76.79;99897.28;5097871;28;20058;-87
2022/09/11 00:57:35;;;;;;;0.70;0.70;;;;;;;4.69;76.69;99901.63;5114252;28;20058;-87
2022/09/11 01:00:03;;;;;;;0.60;0.60;;;;;;;4.74;76.10;99891.19;5114358;28;20062;-86
2022/09/11 01:02:33;;;;;;;0.50;0.50;;;;;;;4.76;75.97;99899.03;5114295;28;20059;-86
2022/09/11 01:05:00;;;;;;;0.60;0.60;;;;;;;4.73;75.93;99900.22;5097757;28;20050;-86
2022/09/11 01:07:29;;;;;;;0.70;0.70;;;;;;;4.64;76.09;99895.19;5114601;28;20040;-86
2022/09/11 01:09:58;;;;;;;0.60;0.60;;;;;;;4.62;76.38;99887.31;5113191;28;20147;-87
2022/09/11 01:12:38;;;;;;;0.60;0.60;;;;;;;4.62;76.28;99900.69;5113351;28;20055;-87
2022/09/11 01:15:05;;;;;;;0.60;0.60;;;;;;;4.54;76.65;99904.28;5098722;28;20048;-86
2022/09/11 01:17:45;;;;;;;0.60;0.60;;;;;;;4.50;76.97;99900.31;5114409;28;20058;-85
2022/09/11 01:20:17;;;;;;;0.70;0.70;;;;;;;4.46;77.20;99898.22;5114215;28;20055;-86
2022/09/11 01:22:47;;;;;;;0.70;0.70;;;;;;;4.49;77.20;99903.19;5079068;28;20043;-86
2022/09/11 01:25:35;;;;;;;0.50;0.50;;;;;;;4.44;77.23;99900.22;5114077;28;20050;-85
2022/09/11 01:28:30;;;;;;;0.70;0.70;;;;;;;4.38;77.49;99893.78;5112966;28;20395;-86
2022/09/11 01:31:03;;;;;;;0.80;0.80;;;;;;;4.38;77.60;99895.59;5113832;28;20051;-86
2022/09/11 01:34:01;;;;;;;0.70;0.70;;;;;;;4.42;77.64;99886.22;5113583;28;20048;-86
2022/09/11 01:36:33;;;;;;;0.75;0.75;;;;;;;4.35;77.43;99891.44;5017760;28;20045;-86
2022/09/11 01:39:03;;;;;;;0.70;0.70;;;;;;;4.23;77.61;99883.06;5034230;28;20056;-85
2022/09/11 01:41:47;;;;;;;0.70;0.70;;;;;;;4.24;77.92;99886.56;5033663;28;20048;-86
2022/09/11 01:44:22;;;;;;;0.70;0.70;;;;;;;4.13;78.21;99891.34;5017709;28;20632;-86
2022/09/11 01:46:51;;;;;;;0.65;0.65;;;;;;;4.07;78.52;99888.53;5044012;28;20052;-86
2022/09/11 01:49:20;;;;;;;0.73;0.73;;;;;;;4.09;78.40;99892.69;5039746;28;20056;-86
2022/09/11 01:52:00;;;;;;;0.70;0.70;;;;;;;4.09;78.61;99883.84;5033990;28;20132;-86
2022/09/11 01:54:50;;;;;;;0.80;0.80;;;;;;;4.07;79.02;99875.19;5033603;28;20088;-86
2022/09/11 01:57:30;;;;;;;0.70;0.70;;;;;;;4.03;78.83;99879.25;5033772;28;20045;-87
2022/09/11 02:00:01;;;;;;;0.63;0.63;;;;;;;4.02;79.16;99874.91;5017206;28;20639;-88
2022/09/11 02:02:35;;;;;;;0.70;0.70;;;;;;;3.98;78.92;99871.78;5016978;28;20076;-86
2022/09/11 02:05:08;;;;;;;0.60;0.60;;;;;;;3.97;79.03;99885.28;5017342;28;20135;-87
2022/09/11 02:08:00;;;;;;;0.70;0.70;;;;;;;3.99;79.08;99875.25;5032955;28;20052;-86
2022/09/11 02:10:39;;;;;;;0.70;0.70;;;;;;;3.98;78.80;99882.47;5028487;28;20063;-87
2022/09/11 02:13:31;;;;;;;0.60;0.60;;;;;;;4.03;79.07;99876.56;5066031;28;20476;-87
2022/09/11 02:16:20;;;;;;;0.70;0.70;;;;;;;4.00;79.06;99883.13;5095634;28;20059;-86
2022/09/11 02:18:57;;;;;;;0.80;0.80;;;;;;;3.98;78.99;99879.78;5094246;28;20051;-87
2022/09/11 02:21:24;;;;;;;0.50;0.50;;;;;;;3.94;79.09;99873.13;5111060;28;20048;-86
2022/09/11 02:23:54;;;;;;;0.68;0.68;;;;;;;3.97;79.06;99874.63;5112217;28;20058;-86
2022/09/11 02:26:24;;;;;;;0.80;0.80;;;;;;;4.02;78.92;99874.91;5094327;28;20055;-86
2022/09/11 02:28:52;;;;;;;0.75;0.75;;;;;;;4.02;78.90;99877.56;5094479;28;20075;-86
2022/09/11 02:31:20;;;;;;;0.70;0.70;;;;;;;3.99;78.75;99873.41;5094249;28;20047;-86
2022/09/11 02:33:48;;;;;;;0.70;0.70;;;;;;;4.03;78.48;99877.41;5112345;28;20456;-86
2022/09/11 02:36:30;;;;;;;0.70;0.70;;;;;;;4.01;78.73;99878.59;5111082;28;20137;-86
2022/09/11 02:39:12;;;;;;;0.70;0.70;;;;;;;4.03;78.67;99877.41;5111220;28;20082;-86
2022/09/11 02:41:51;;;;;;;0.70;0.70;;;;;;;4.06;78.53;99876.22;5111354;28;20527;-87
2022/09/11 02:44:49;;;;;;;0.80;0.80;;;;;;;4.07;78.18;99877.84;5111433;28;20058;-87
2022/09/11 02:47:34;;;;;;;0.60;0.60;;;;;;;4.08;78.32;99879.53;5112466;28;20054;-87
2022/09/11 02:50:07;;;;;;;0.70;0.70;;;;;;;4.06;78.17;99871.69;5112240;28;20460;-87
2022/09/11 02:52:48;;;;;;;0.50;0.50;;;;;;;4.07;78.02;99877.84;5094368;28;20043;-86
2022/09/11 02:55:27;;;;;;;0.77;0.77;;;;;;;4.08;77.84;99866.19;5094387;28;20124;-86
2022/09/11 02:58:09;;;;;;;0.65;0.65;;;;;;;4.06;77.80;99868.19;5111098;28;20043;-85
2022/09/11 03:00:38;;;;;;;0.70;0.70;;;;;;;4.01;78.13;99874.06;5077718;28;20059;-86
2022/09/11 03:03:07;;;;;;;0.70;0.70;;;;;;;4.05;77.85;99869.19;5111958;28;20052;-86
2022/09/11 03:05:39;;;;;;;0.80;0.80;;;;;;;4.09;77.85;99865.16;5111460;28;20044;-86
2022/09/11 03:08:06;;;;;;;0.70;0.70;;;;;;;4.09;77.49;99865.16;5111495;28;20047;-87
2022/09/11 03:10:33;;;;;;;0.85;0.85;;;;;;;4.10;77.72;99864.13;5111478;28;20046;-86
2022/09/11 03:13:00;;;;;;;0.57;0.57;;;;;;;4.09;77.50;99860.63;5111415;28;20474;-86
2022/09/11 03:15:30;;;;;;;0.70;0.70;;;;;;;4.13;77.53;99866.47;5111221;28;20134;-87
2022/09/11 03:17:57;;;;;;;0.68;0.68;;;;;;;4.20;77.43;99854.00;5094487;28;20472;-87
2022/09/11 03:20:24;;;;;;;0.60;0.60;;;;;;;4.25;77.44;99859.63;5110900;28;20548;-86
2022/09/11 03:22:51;;;;;;;0.60;0.60;;;;;;;4.29;77.49;99852.94;5112251;28;20043;-87
2022/09/11 03:25:19;;;;;;;0.70;0.70;;;;;;;4.41;77.31;99861.34;5111306;28;20114;-86
2022/09/11 03:27:47;;;;;;;0.65;0.65;;;;;;;4.60;76.76;99856.44;5096214;28;20047;-87
2022/09/11 03:30:14;;;;;;;0.80;0.80;;;;;;;4.67;76.00;99847.50;5107596;28;20090;-87
2022/09/11 03:32:47;;;;;;;0.60;0.60;;;;;;;4.86;74.93;99855.94;5102211;28;20044;-87
2022/09/11 03:35:15;;;;;;;0.70;0.70;;;;;;;4.86;74.63;99845.25;5091901;28;20503;-87
2022/09/11 03:37:49;;;;;;;0.80;0.80;;;;;;;4.83;74.57;99837.59;5093236;28;20048;-87
2022/09/11 03:40:16;;;;;;;0.70;0.70;;;;;;;4.75;75.14;99834.00;5074594;28;20410;-88
2022/09/11 03:42:43;;;;;;;0.70;0.70;;;;;;;4.71;75.14;99832.75;5092505;28;20051;-87
2022/09/11 03:45:13;;;;;;;0.65;0.65;;;;;;;4.81;75.02;99850.34;5096492;28;20097;-89
2022/09/11 03:47:40;;;;;;;0.60;0.60;;;;;;;4.80;74.92;99836.13;5094022;28;20048;-87
2022/09/11 03:50:08;;;;;;;0.80;0.80;;;;;;;4.92;74.07;99833.81;5099500;28;20410;-87
2022/09/11 03:52:35;;;;;;;0.60;0.60;;;;;;;5.04;73.35;99843.03;5097968;28;20058;-87
2022/09/11 03:55:05;;;;;;;0.70;0.70;;;;;;;5.09;73.21;99840.63;5098787;28;20051;-87
2022/09/11 03:57:32;;;;;;;0.60;0.60;;;;;;;5.13;73.16;99833.84;5081580;28;20056;-87
2022/09/11 04:00:00;;;;;;;0.70;0.70;;;;;;;5.22;73.06;99840.75;5085418;28;20103;-85
2022/09/11 04:02:33;;;;;;;0.60;0.60;;;;;;;5.27;72.53;99842.03;5103930;28;20048;-88
2022/09/11 04:05:03;;;;;;;0.70;0.70;;;;;;;5.38;72.03;99837.00;5086789;28;20048;-86
2022/09/11 04:07:30;;;;;;;0.70;0.70;;;;;;;5.57;70.77;99846.28;5096722;28;20142;-87
2022/09/11 04:10:01;;;;;;;0.80;0.80;;;;;;;5.69;70.52;99849.25;5098653;28;20534;-87
2022/09/11 04:12:30;;;;;;;0.70;0.70;;;;;;;5.76;70.61;99843.94;5082042;28;20062;-87
2022/09/11 04:14:57;;;;;;;0.65;0.65;;;;;;;5.77;71.19;99845.59;5117567;28;20044;-88
2022/09/11 04:17:25;;;;;;;0.80;0.80;;;;;;;5.78;71.44;99847.28;5115068;28;20085;-87
2022/09/11 04:19:52;;;;;;;0.63;0.63;;;;;;;5.79;71.23;99851.59;5114592;28;20054;-88
2022/09/11 04:22:21;;;;;;;0.70;0.70;;;;;;;5.92;70.37;99846.34;5098134;28;20054;-88
2022/09/11 04:24:49;;;;;;;0.60;0.60;;;;;;;6.11;69.79;99847.56;5080892;28;20071;-86
2022/09/11 04:27:16;;;;;;;0.80;0.80;;;;;;;6.19;69.25;99849.28;5098885;28;20043;-86
2022/09/11 04:29:46;;;;;;;0.70;0.70;;;;;;;6.36;68.36;99853.31;5124506;28;20066;-88
2022/09/11 04:32:14;;;;;;;0.70;0.70;;;;;;;6.45;67.45;99838.72;5124284;28;20451;-87
2022/09/11 04:34:42;;;;;;;0.60;0.60;;;;;;;6.58;66.99;99846.00;5108787;28;20119;-86
2022/09/11 04:37:10;;;;;;;0.70;0.70;;;;;;;6.67;66.64;99846.69;5124240;28;20047;-86
2022/09/11 04:39:52;;;;;;;0.60;0.60;;;;;;;6.77;66.01;99841.78;5091840;28;20104;-86
2022/09/11 04:42:19;;;;;;;0.70;0.70;;;;;;;6.93;65.70;99837.91;5120181;28;20035;-86
2022/09/11 04:44:46;;;;;;;0.60;0.60;;;;;;;7.02;65.16;99835.91;5114745;28;20394;-86
2022/09/11 04:47:19;;;;;;;0.70;0.70;;;;;;;7.14;64.85;99840.50;5114774;28;20052;-86
2022/09/11 04:49:47;;;;;;;0.70;0.70;;;;;;;7.25;64.30;99833.69;5065347;28;20229;-87
2022/09/11 04:52:14;;;;;;;0.73;0.73;;;;;;;7.34;63.78;99828.97;5114855;28;20043;-86
2022/09/11 04:54:41;;;;;;;0.70;0.70;;;;;;;7.51;63.48;99837.47;5097505;28;20048;-86
2022/09/11 04:57:09;;;;;;;0.70;0.70;;;;;;;7.59;62.85;99838.09;5076335;28;20173;-87
2022/09/11 04:59:37;;;;;;;0.70;0.70;;;;;;;7.71;62.52;99835.63;5075405;28;20456;-86
2022/09/11 05:02:10;;;;;;;0.60;0.60;;;;;;;7.88;62.53;99844.13;5075458;28;20135;-87
2022/09/11 05:04:43;;;;;;;0.70;0.70;;;;;;;7.93;62.21;99838.97;5074921;28;20052;-86
2022/09/11 05:07:20;;;;;;;0.70;0.70;;;;;;;8.04;61.64;99841.00;5028777;28;20044;-87
2022/09/11 05:09:53;;;;;;;0.60;0.60;;;;;;;8.23;61.54;99844.72;5095526;28;20051;-88
2022/09/11 05:12:21;;;;;;;0.70;0.70;;;;;;;8.40;60.93;99853.19;5087588;28;20140;-86
2022/09/11 05:14:52;;;;;;;0.70;0.70;;;;;;;8.47;60.77;99845.13;5057963;28;20052;-88
2022/09/11 05:17:19;;;;;;;0.80;0.80;;;;;;;8.61;60.07;99840.56;5059026;28;20048;-87
2022/09/11 05:19:46;;;;;;;0.65;0.65;;;;;;;8.67;59.33;99845.91;5075293;28;20048;-87
2022/09/11 05:22:14;;;;;;;0.70;0.70;;;;;;;8.79;59.07;99842.56;5075037;28;20544;-86
2022/09/11 05:24:46;;;;;;;0.70;0.70;;;;;;;8.90;58.46;99847.28;5075843;28;20180;-86
2022/09/11 05:27:13;;;;;;;0.70;0.70;;;;;;;8.94;58.46;99839.59;5060828;28;20640;-86
2022/09/11 05:29:42;;;;;;;0.70;0.70;;;;;;;9.14;58.45;99843.06;5081206;28;20047;-88
2022/09/11 05:32:12;;;;;;;0.70;0.70;;;;;;;9.22;58.26;99842.78;5117766;28;20051;-87
2022/09/11 05:34:40;;;;;;;0.70;0.70;;;;;;;9.33;57.96;99843.97;5098330;28;20071;-88
2022/09/11 05:37:12;;;;;;;0.70;0.70;;;;;;;9.34;57.44;99832.16;5097084;28;20070;-86
2022/09/11 05:39:43;;;;;;;0.70;0.70;;;;;;;9.55;57.21;99848.00;5113331;28;20390;-86
2022/09/11 05:42:13;;;;;;;0.70;0.70;;;;;;;9.73;57.12;99839.16;5114836;28;20048;-86
2022/09/11 05:44:46;;;;;;;0.60;0.60;;;;;;;9.94;56.68;99839.81;5115169;28;20511;-87
2022/09/11 05:47:14;;;;;;;0.70;0.70;;;;;;;10.00;56.15;99833.53;5112813;28;20077;-86
2022/09/11 05:49:44;;;;;;;0.60;0.60;;;;;;;10.07;55.94;99826.22;5115153;28;20452;-86
2022/09/11 05:52:12;;;;;;;0.70;0.70;;;;;;;10.14;55.39;99835.09;5122170;28;20086;-87
2022/09/11 05:54:43;;;;;;;0.70;0.70;;;;;;;10.23;55.11;99824.00;5081638;28;20737;-87
2022/09/11 05:57:12;;;;;;;0.60;0.60;;;;;;;10.44;55.23;99833.59;5113089;28;20087;-88
2022/09/11 05:59:40;;;;;;;0.60;0.60;;;;;;;10.56;55.05;99823.72;5112714;28;20134;-87
2022/09/11 06:02:09;;;;;;;0.70;0.70;;;;;;;10.63;54.68;99824.44;5113120;28;20426;-87
2022/09/11 06:04:46;;;;;;;0.60;0.60;;;;;;;10.78;54.31;99829.47;5113173;28;20046;-87
2022/09/11 06:07:13;;;;;;;0.60;0.60;;;;;;;10.83;53.82;99826.94;5102361;28;20051;-88
2022/09/11 06:09:44;;;;;;;0.70;0.70;;;;;;;10.80;52.85;99833.59;5115539;28;20108;-87
2022/09/11 06:12:12;;;;;;;0.60;0.60;;;;;;;10.87;53.04;99828.13;5116547;28;20058;-87
2022/09/11 06:14:43;;;;;;;0.60;0.60;;;;;;;10.92;52.97;99825.56;5101152;28;20051;-87
2022/09/11 06:17:11;;;;;;;0.60;0.60;;;;;;;11.05;53.01;99808.38;5064326;28;20051;-87
2022/09/11 06:19:38;;;;;;;0.60;0.60;;;;;;;11.27;52.04;99823.03;5097705;28;20142;-88
2022/09/11 06:22:05;;;;;;;0.70;0.70;;;;;;;11.40;51.87;99822.03;5113546;28;20043;-87
2022/09/11 06:24:37;;;;;;;0.60;0.60;;;;;;;11.51;52.14;99817.72;5097410;28;20430;-87
2022/09/11 06:27:04;;;;;;;0.60;0.60;;;;;;;11.59;51.91;99809.25;5113739;28;20044;-88
2022/09/11 06:29:34;;;;;;;0.60;0.60;;;;;;;11.56;51.80;99814.31;5118053;28;20054;-87
2022/09/11 06:32:02;;;;;;;0.60;0.60;;;;;;;11.53;51.16;99817.50;5116123;28;20051;-88
2022/09/11 06:34:31;;;;;;;0.60;0.60;;;;;;;11.51;51.05;99804.19;5083574;28;20051;-88
2022/09/11 06:37:03;;;;;;;0.50;0.50;;;;;;;11.56;51.25;99793.50;5113766;28;20460;-89
2022/09/11 06:39:33;;;;;;;0.60;0.60;;;;;;;11.77;51.14;99812.94;5098889;28;20043;-88
2022/09/11 06:42:01;;;;;;;0.60;0.60;;;;;;;11.87;50.48;99791.59;5083094;28;20065;-89
2022/09/11 06:44:32;;;;;;;0.50;0.50;;;;;;;12.17;50.76;99809.59;5073855;28;20143;-88
2022/09/11 06:47:01;;;;;;;0.60;0.60;;;;;;;12.30;50.60;99804.75;5038754;28;20071;-88
2022/09/11 06:49:29;;;;;;;0.60;0.60;;;;;;;12.31;49.90;99794.78;5058623;28;20059;-89
2022/09/11 06:52:26;;;;;;;0.50;0.50;;;;;;;12.40;49.84;99798.75;4992115;28;20054;-88
2022/09/11 06:55:12;;;;;;;0.50;0.50;;;;;;;12.42;49.28;99795.81;4994846;28;20090;-87
2022/09/11 06:57:44;;;;;;;0.63;0.63;;;;;;;12.56;49.24;99798.06;5005779;28;20101;-88
2022/09/11 07:00:15;;;;;;;0.60;0.60;;;;;;;12.62;48.22;99796.25;5000006;28;20068;-89
2022/09/11 07:02:45;;;;;;;0.60;0.60;;;;;;;12.48;48.18;99795.72;4978398;28;20046;-88
2022/09/11 07:05:14;;;;;;;0.60;0.60;;;;;;;12.32;48.49;99791.00;4960431;28;20063;-89
2022/09/11 07:07:47;;;;;;;0.60;0.60;;;;;;;12.40;48.30;99806.06;4976013;28;20134;-87
2022/09/11 07:10:15;;;;;;;0.60;0.60;;;;;;;12.45;48.46;99795.34;4993830;28;20113;-88
2022/09/11 07:12:47;;;;;;;0.60;0.60;;;;;;;12.64;47.61;99802.28;4968872;28;20646;-87
2022/09/11 07:15:16;;;;;;;0.60;0.60;;;;;;;12.87;47.61;99790.56;4972677;28;20024;-87
2022/09/11 07:17:47;;;;;;;0.60;0.60;;;;;;;13.10;47.23;99796.97;5013242;28;20057;-87
2022/09/11 07:20:16;;;;;;;0.60;0.60;;;;;;;13.36;47.02;99787.44;5018654;28;20494;-88
2022/09/11 07:22:44;;;;;;;0.60;0.60;;;;;;;13.52;47.39;99781.22;5019283;28;20053;-86
2022/09/11 07:25:14;;;;;;;0.60;0.60;;;;;;;13.69;47.00;99778.50;5036685;28;20145;-88
2022/09/11 07:27:42;;;;;;;0.60;0.60;;;;;;;13.84;47.11;99780.66;5037301;28;20063;-89
2022/09/11 07:30:11;;;;;;;0.60;0.60;;;;;;;13.77;46.82;99772.66;5113343;28;20446;-89
2022/09/11 07:32:40;;;;;;;0.57;0.57;;;;;;;13.82;46.62;99785.50;5096353;28;20570;-90
2022/09/11 07:35:07;;;;;;;0.57;0.57;;;;;;;13.98;46.33;99771.13;5077911;28;20459;-88
2022/09/11 07:37:36;;;;;;;0.60;0.60;;;;;;;14.04;45.63;99767.41;5113759;28;20474;-90
2022/09/11 07:40:04;;;;;;;0.60;0.60;;;;;;;14.20;44.64;99768.44;5119211;28;20126;-88
2022/09/11 07:42:43;;;;;;;0.60;0.60;;;;;;;14.35;44.64;99770.53;5108116;28;20047;-93
2022/09/11 07:45:10;;;;;;;0.50;0.50;;;;;;;14.40;44.29;99764.38;5079995;28;20044;-86
2022/09/11 07:47:38;;;;;;;0.60;0.60;;;;;;;14.33;43.85;99778.16;5093573;28;20044;-89
2022/09/11 07:50:13;;;;;;;0.60;0.60;;;;;;;14.16;43.43;99758.34;5107219;28;20111;-88
2022/09/11 07:52:56;;;;;;;0.60;0.60;;;;;;;13.96;43.68;99750.72;5062656;28;20043;-89
2022/09/11 07:55:33;;;;;;;;;;;;;;;14.25;43.38;99771.22;5065052;28;20171;-88
2022/09/11 07:58:01;;;;;;;0.60;0.60;;;;;;;14.45;42.75;99761.72;5064188;28;19981;-89
2022/09/11 08:00:28;;;;;;;0.70;0.70;;;;;;;14.70;42.44;99745.78;5117636;28;20040;-87
2022/09/11 08:03:11;;;;;;;0.70;0.70;;;;;;;14.67;41.51;99724.56;5111112;28;20139;-89
2022/09/11 08:05:38;;;;;;;0.60;0.60;;;;;;;15.16;40.79;99749.00;5122921;28;20048;-89
2022/09/11 08:08:10;;;;;;;0.70;0.70;;;;;;;15.32;41.25;99739.09;5117691;28;20039;-91
2022/09/11 08:10:39;;;;;;;0.80;0.80;;;;;;;15.82;39.97;99726.19;5115195;28;20054;-86
2022/09/11 08:13:07;;;;;;;0.70;0.70;;;;;;;15.98;38.11;99733.41;5091970;28;20127;-86
2022/09/11 08:15:36;;;;;;;0.70;0.70;;;;;;;16.05;37.58;99735.88;5094193;28;20586;-87
2022/09/11 08:18:05;;;;;;;0.60;0.60;;;;;;;15.94;37.96;99729.53;5111186;28;20112;-85
2022/09/11 08:20:33;;;;;;;0.60;0.60;;;;;;;15.80;37.80;99740.06;5110508;28;20109;-83
2022/09/11 08:23:01;;;;;;;0.60;0.60;;;;;;;15.49;38.52;99724.53;5093923;28;20505;-84
2022/09/11 08:25:28;;;;;;;0.70;0.70;;;;;;;15.63;38.35;99714.88;5113966;28;20073;-87
2022/09/11 08:27:57;;;;;;;0.70;0.70;;;;;;;15.79;38.15;99727.53;5097510;28;20054;-85
2022/09/11 08:30:25;;;;;;;0.60;0.60;;;;;;;16.13;37.85;99707.31;5093938;28;20052;-87
2022/09/11 08:32:55;;;;;;;0.60;0.60;;;;;;;15.87;38.20;99712.63;5109478;28;20051;-85
2022/09/11 08:35:22;;;;;;;0.60;0.60;;;;;;;16.13;38.29;99701.88;5112767;28;20211;-87
2022/09/11 08:38:07;;;;;;;0.60;0.60;;;;;;;16.31;37.72;99704.16;5114319;28;20047;-86
2022/09/11 08:40:36;;;;;;;0.60;0.60;;;;;;;16.53;37.06;99703.16;5097675;28;20048;-88
2022/09/11 08:43:10;;;;;;;0.60;0.60;;;;;;;16.35;36.93;99710.72;5125763;28;20047;-86
2022/09/11 08:45:39;;;;;;;0.60;0.60;;;;;;;16.22;36.87;99705.75;5107825;28;20055;-88
2022/09/11 08:48:08;;;;;;;0.60;0.60;;;;;;;16.30;36.67;99701.69;5093965;28;20069;-87
2022/09/11 08:50:40;;;;;;;0.60;0.60;;;;;;;16.50;36.37;99706.41;5088398;28;20453;-87
2022/09/11 08:53:14;;;;;;;0.60;0.60;;;;;;;16.80;35.57;99698.38;5107995;28;20043;-88
2022/09/11 08:55:46;;;;;;;0.60;0.60;;;;;;;17.16;35.62;99717.53;5120331;28;20091;-87
2022/09/11 08:58:25;;;;;;;0.60;0.60;;;;;;;17.10;35.19;99713.97;5066137;28;20057;-86
2022/09/11 09:01:02;;;;;;;0.60;0.60;;;;;;;17.01;35.54;99712.88;5099705;28;20146;-88
2022/09/11 09:03:42;;;;;;;0.60;0.60;;;;;;;17.34;35.53;99688.91;5117743;28;20052;-88
2022/09/11 09:06:24;;;;;;;0.68;0.68;;;;;;;17.87;34.50;99711.28;5100554;28;20071;-88
2022/09/11 09:09:01;;;;;;;0.70;0.70;;;;;;;17.84;34.25;99711.03;5081868;28;20051;-88
2022/09/11 09:11:35;;;;;;;0.60;0.60;;;;;;;17.63;34.67;99716.47;5114562;28;20075;-87
2022/09/11 09:14:16;;;;;;;0.60;0.60;;;;;;;17.46;34.28;99713.19;5099657;28;20450;-89
2022/09/11 09:17:20;;;;;;;;;;;;;;;17.38;35.11;99705.56;5115422;28;20055;-85
2022/09/11 09:19:49;;;;;;;0.60;0.60;;;;;;;17.70;34.62;99703.38;5114761;28;19990;-87
2022/09/11 09:22:19;;;;;;;0.60;0.60;;;;;;;18.08;34.30;99708.50;5115353;28;20051;-87
2022/09/11 09:24:49;;;;;;;0.60;0.60;;;;;;;18.14;34.12;99705.50;5096531;28;20051;-87
2022/09/11 09:27:48;;;;;;;0.60;0.60;;;;;;;18.25;34.08;99683.59;5113945;28;20039;-86
2022/09/11 09:30:20;;;;;;;0.50;0.50;;;;;;;18.55;33.07;99707.25;5035309;28;20076;-87
2022/09/11 09:32:53;;;;;;;0.50;0.50;;;;;;;18.34;32.88;99706.53;5004456;28;20073;-88
2022/09/11 09:35:39;;;;;;;0.50;0.50;;;;;;;17.87;33.39;99713.19;5020464;28;20061;-86
2022/09/11 09:38:20;;;;;;;0.50;0.50;;;;;;;17.26;34.25;99692.19;5052732;28;20057;-87
2022/09/11 09:41:14;;;;;;;0.50;0.50;;;;;;;17.17;34.44;99699.28;5020307;28;20049;-86
2022/09/11 09:44:07;;;;;;;0.50;0.50;;;;;;;16.83;34.75;99694.28;5003141;28;20288;-86
2022/09/11 09:46:44;;;;;;;0.50;0.50;;;;;;;16.68;35.23;99698.59;5035652;28;20056;-87
2022/09/11 09:49:29;;;;;;;0.52;0.52;;;;;;;16.56;35.38;99708.91;5020934;28;20518;-87
2022/09/11 09:51:58;;;;;;;0.50;0.50;;;;;;;16.44;35.47;99703.69;5036986;28;20132;-86
2022/09/11 09:54:33;;;;;;;0.60;0.60;;;;;;;16.35;35.63;99697.09;5036473;28;20053;-87
2022/09/11 09:57:02;;;;;;;0.50;0.50;;;;;;;16.20;36.25;99705.19;5034531;28;20115;-87
2022/09/11 09:59:55;;;;;;;0.50;0.50;;;;;;;16.60;36.09;99707.28;5034254;28;20563;-85
2022/09/11 10:02:40;;;;;;;0.50;0.50;;;;;;;16.87;35.71;99712.56;5043040;28;20076;-87
2022/09/11 10:05:31;;;;;;;0.50;0.50;;;;;;;16.57;35.96;99713.25;5052009;28;20399;-87
2022/09/11 10:08:04;;;;;;;0.50;0.50;;;;;;;16.12;36.65;99697.53;5098519;28;20044;-86
2022/09/11 10:10:35;;;;;;;0.50;0.50;;;;;;;16.06;37.22;99717.66;5115869;28;20078;-86
2022/09/11 10:13:17;;;;;;;0.60;0.60;;;;;;;16.23;36.97;99719.13;5065386;28;20285;-87
2022/09/11 10:15:51;;;;;;;0.60;0.60;;;;;;;16.18;36.99;99710.06;5115073;28;20065;-86
2022/09/11 10:18:31;;;;;;;0.50;0.50;;;;;;;15.99;37.39;99704.25;5065069;28;20075;-85
2022/09/11 10:21:12;;;;;;;0.50;0.50;;;;;;;16.03;37.90;99695.31;5098463;28;20574;-86
2022/09/11 10:24:07;;;;;;;0.50;0.50;;;;;;;15.79;37.81;99700.31;5114456;28;20048;-86
2022/09/11 10:26:44;;;;;;;0.50;0.50;;;;;;;15.88;38.06;99694.41;5115189;28;20082;-86
2022/09/11 10:29:15;;;;;;;0.50;0.50;;;;;;;16.13;37.99;99686.38;5079791;28;20047;-87
2022/09/11 10:31:51;;;;;;;0.50;0.50;;;;;;;16.25;37.68;99697.88;5104232;28;20075;-85
2022/09/11 10:34:19;;;;;;;0.40;0.40;;;;;;;16.04;37.82;99671.63;5103960;28;20043;-87
2022/09/11 10:37:00;;;;;;;0.50;0.50;;;;;;;16.00;38.18;99689.56;5114727;28;20059;-87
2022/09/11 10:39:29;;;;;;;0.50;0.50;;;;;;;16.04;38.03;99674.34;5114057;28;20052;-85
2022/09/11 10:42:00;;;;;;;0.40;0.40;;;;;;;16.23;37.86;99686.44;5113922;28;20058;-86
2022/09/11 10:44:29;;;;;;;0.50;0.50;;;;;;;16.22;37.63;99697.59;5095173;28;20080;-87
2022/09/11 10:47:12;;;;;;;0.40;0.40;;;;;;;16.16;37.88;99676.88;5095254;28;20058;-86
2022/09/11 10:49:39;;;;;;;0.50;0.50;;;;;;;16.04;37.85;99661.53;5094856;28;20048;-86
2022/09/11 10:52:06;;;;;;;0.40;0.40;;;;;;;16.01;37.94;99672.97;5095733;28;20124;-85
2022/09/11 10:54:58;;;;;;;0.50;0.50;;;;;;;15.97;38.48;99676.47;5112156;28;20051;-86
2022/09/11 10:57:42;;;;;;;0.50;0.50;;;;;;;16.26;38.18;99663.28;5113114;28;20048;-85
2022/09/11 11:00:24;;;;;;;0.50;0.50;;;;;;;16.65;37.42;99671.06;5110871;28;20043;-89
2022/09/11 11:03:04;;;;;;;0.50;0.50;;;;;;;16.67;37.25;99663.44;5063226;28;20075;-85
2022/09/11 11:06:14;;;;;;;0.50;0.50;;;;;;;16.86;37.11;99661.03;5109828;28;20060;-87
2022/09/11 11:08:59;;;;;;;0.40;0.40;;;;;;;16.98;37.07;99663.53;5094324;28;20142;-88
2022/09/11 11:11:32;;;;;;;0.50;0.50;;;;;;;17.40;36.30;99654.28;5108102;28;20678;-88
2022/09/11 11:14:20;;;;;;;0.47;0.47;;;;;;;17.60;35.29;99659.72;5107009;28;20071;-87
2022/09/11 11:17:02;;;;;;;0.50;0.50;;;;;;;17.64;35.44;99654.50;5095337;28;20428;-87
2022/09/11 11:20:01;;;;;;;0.50;0.50;;;;;;;17.65;35.36;99661.63;5114261;28;20134;-87
2022/09/11 11:23:21;;;;;;;0.50;0.50;;;;;;;17.76;35.38;99649.59;5109137;28;20046;-86
2022/09/11 11:26:11;;;;;;;0.50;0.50;;;;;;;17.98;34.94;99655.56;5113065;28;20137;-88
2022/09/11 11:28:54;;;;;;;0.50;0.50;;;;;;;18.13;34.76;99649.25;5114482;28;20047;-88
2022/09/11 11:31:57;;;;;;;0.50;0.50;;;;;;;18.33;34.52;99639.31;5113474;28;20039;-81
2022/09/11 11:34:47;;;;;;;0.50;0.50;;;;;;;18.39;34.01;99643.66;5046118;28;20517;-85
2022/09/11 11:37:25;;;;;;;0.40;0.40;;;;;;;18.02;34.69;99641.34;5030035;28;20111;-85
2022/09/11 11:40:02;;;;;;;0.50;0.50;;;;;;;17.97;34.23;99642.19;5017043;28;20040;-85
2022/09/11 11:42:50;;;;;;;0.40;0.40;;;;;;;17.80;34.65;99631.59;5032329;28;20049;-84
2022/09/11 11:45:30;;;;;;;0.50;0.50;;;;;;;17.84;34.38;99642.78;5032250;28;20583;-86
2022/09/11 11:48:03;;;;;;;0.40;0.40;;;;;;;17.69;34.27;99649.03;4999810;28;20491;-86
2022/09/11 11:50:40;;;;;;;0.40;0.40;;;;;;;17.62;34.39;99643.84;5032005;28;20048;-88
2022/09/11 11:53:21;;;;;;;0.40;0.40;;;;;;;17.64;34.86;99636.22;5049014;28;20382;-86
2022/09/11 11:56:32;;;;;;;0.40;0.40;;;;;;;17.49;34.31;99626.13;5048031;28;20117;-86
2022/09/11 11:59:16;;;;;;;0.45;0.45;;;;;;;17.40;34.68;99621.53;5047743;28;20616;-85
2022/09/11 12:02:04;;;;;;;0.40;0.40;;;;;;;17.02;35.06;99623.72;5028730;28;20420;-85
2022/09/11 12:04:34;;;;;;;0.50;0.50;;;;;;;16.86;35.43;99618.25;5014304;28;20056;-83
2022/09/11 12:07:03;;;;;;;0.50;0.50;;;;;;;16.78;35.82;99609.78;5028958;28;20049;-84
2022/09/11 12:09:31;;;;;;;0.40;0.40;;;;;;;16.79;35.51;99622.34;5015171;28;20077;-84
2022/09/11 12:12:04;;;;;;;0.40;0.40;;;;;;;16.65;35.99;99606.47;5112784;28;20092;-85